sensor_id;sensor_type;location;lat;lon;timestamp;temperature;humidity
29721;DHT22;23665;51.044;3.748;2022-11-15T00:01:54;12.30;99.90
29721;DHT22;23665;51.044;3.748;2022-11-15T00:04:20;12.30;99.90
29721;DHT22;23665;51.044;3.748;2022-11-15T00:06:46;12.40;99.90
29721;DHT22;23665;51.044;3.748;2022-11-15T00:09:11;12.40;99.90
29721;DHT22;23665;51.044;3.748;2022-11-15T00:11:37;12.50;99.90
29721;DHT22;23665;51.044;3.748;2022-11-15T00:14:03;12.50;99.90
29721;DHT22;23665;51.044;3.748;2022-11-15T00:16:29;12.60;99.90
29721;DHT22;23665;51.044;3.748;2022-11-15T00:18:54;12.60;99.90
29721;DHT22;23665;51.044;3.748;2022-11-15T00:21:20;12.50;99.90
29721;DHT22;23665;51.044;3.748;2022-11-15T00:23:46;12.50;99.90
29721;DHT22;23665;51.044;3.748;2022-11-15T00:26:13;12.60;99.90
29721;DHT22;23665;51.044;3.748;2022-11-15T00:28:40;12.70;99.90
29721;DHT22;23665;51.044;3.748;2022-11-15T00:31:09;12.70;99.90
29721;DHT22;23665;51.044;3.748;2022-11-15T00:33:36;12.80;99.90
29721;DHT22;23665;51.044;3.748;2022-11-15T00:36:07;12.80;99.90
29721;DHT22;23665;51.044;3.748;2022-11-15T00:38:38;12.80;99.90
29721;DHT22;23665;51.044;3.748;2022-11-15T00:41:05;12.70;99.90
29721;DHT22;23665;51.044;3.748;2022-11-15T00:43:32;12.70;99.90
29721;DHT22;23665;51.044;3.748;2022-11-15T00:45:58;12.70;99.90
29721;DHT22;23665;51.044;3.748;2022-11-15T00:48:24;12.60;99.90
29721;DHT22;23665;51.044;3.748;2022-11-15T00:50:50;12.70;99.90
29721;DHT22;23665;51.044;3.748;2022-11-15T00:53:17;12.80;99.90
29721;DHT22;23665;51.044;3.748;2022-11-15T00:55:43;12.80;99.90
29721;DHT22;23665;51.044;3.748;2022-11-15T00:58:09;12.80;99.90
29721;DHT22;23665;51.044;3.748;2022-11-15T01:00:35;12.70;99.90
29721;DHT22;23665;51.044;3.748;2022-11-15T01:03:01;12.70;99.90
29721;DHT22;23665;51.044;3.748;2022-11-15T01:05:28;12.70;99.90
29721;DHT22;23665;51.044;3.748;2022-11-15T01:07:55;12.70;99.90
29721;DHT22;23665;51.044;3.748;2022-11-15T01:10:21;12.70;99.90
29721;DHT22;23665;51.044;3.748;2022-11-15T01:12:48;12.70;99.90
29721;DHT22;23665;51.044;3.748;2022-11-15T01:15:13;12.60;99.90
29721;DHT22;23665;51.044;3.748;2022-11-15T01:17:39;12.50;99.90
29721;DHT22;23665;51.044;3.748;2022-11-15T01:20:06;12.50;99.90
29721;DHT22;23665;51.044;3.748;2022-11-15T01:22:32;12.50;99.90
29721;DHT22;23665;51.044;3.748;2022-11-15T01:24:57;12.70;99.90
29721;DHT22;23665;51.044;3.748;2022-11-15T01:27:23;12.70;99.90
29721;DHT22;23665;51.044;3.748;2022-11-15T01:29:49;12.70;99.90
29721;DHT22;23665;51.044;3.748;2022-11-15T01:32:15;12.70;99.90
29721;DHT22;23665;51.044;3.748;2022-11-15T01:34:41;12.70;99.90
29721;DHT22;23665;51.044;3.748;2022-11-15T01:37:07;12.80;99.90
29721;DHT22;23665;51.044;3.748;2022-11-15T01:39:33;12.70;99.90
29721;DHT22;23665;51.044;3.748;2022-11-15T01:41:59;12.70;99.90
29721;DHT22;23665;51.044;3.748;2022-11-15T01:46:58;12.80;99.90
29721;DHT22;23665;51.044;3.748;2022-11-15T01:49:25;12.90;99.90
29721;DHT22;23665;51.044;3.748;2022-11-15T01:51:53;12.80;99.90
29721;DHT22;23665;51.044;3.748;2022-11-15T01:54:21;12.70;99.90
29721;DHT22;23665;51.044;3.748;2022-11-15T01:56:52;12.70;99.90
29721;DHT22;23665;51.044;3.748;2022-11-15T01:59:19;12.70;99.90
29721;DHT22;23665;51.044;3.748;2022-11-15T02:01:45;12.80;99.90
29721;DHT22;23665;51.044;3.748;2022-11-15T02:04:20;12.70;99.90
29721;DHT22;23665;51.044;3.748;2022-11-15T02:06:48;12.80;99.90
29721;DHT22;23665;51.044;3.748;2022-11-15T02:09:15;12.70;99.90
29721;DHT22;23665;51.044;3.748;2022-11-15T02:11:42;12.80;99.90
29721;DHT22;23665;51.044;3.748;2022-11-15T02:14:10;12.80;99.90
29721;DHT22;23665;51.044;3.748;2022-11-15T02:25:01;12.60;99.90
29721;DHT22;23665;51.044;3.748;2022-11-15T02:27:42;12.60;99.90
29721;DHT22;23665;51.044;3.748;2022-11-15T02:30:31;12.60;99.90
29721;DHT22;23665;51.044;3.748;2022-11-15T02:38:54;12.50;99.90
29721;DHT22;23665;51.044;3.748;2022-11-15T02:41:46;12.50;99.90
29721;DHT22;23665;51.044;3.748;2022-11-15T02:44:25;12.50;99.90
29721;DHT22;23665;51.044;3.748;2022-11-15T02:46:58;12.40;99.90
29721;DHT22;23665;51.044;3.748;2022-11-15T02:49:46;12.40;99.90
29721;DHT22;23665;51.044;3.748;2022-11-15T02:52:19;12.50;99.90
29721;DHT22;23665;51.044;3.748;2022-11-15T02:54:55;12.50;99.90
29721;DHT22;23665;51.044;3.748;2022-11-15T02:57:39;12.40;99.90
29721;DHT22;23665;51.044;3.748;2022-11-15T03:00:12;12.40;99.90
29721;DHT22;23665;51.044;3.748;2022-11-15T03:05:46;12.40;99.90
29721;DHT22;23665;51.044;3.748;2022-11-15T03:08:17;12.40;99.90
29721;DHT22;23665;51.044;3.748;2022-11-15T03:11:08;12.40;99.90
29721;DHT22;23665;51.044;3.748;2022-11-15T03:13:39;12.50;99.90
29721;DHT22;23665;51.044;3.748;2022-11-15T03:18:47;12.50;99.90
29721;DHT22;23665;51.044;3.748;2022-11-15T03:21:19;12.40;99.90
29721;DHT22;23665;51.044;3.748;2022-11-15T03:23:47;12.40;99.90
29721;DHT22;23665;51.044;3.748;2022-11-15T03:26:14;12.40;99.90
29721;DHT22;23665;51.044;3.748;2022-11-15T03:31:09;12.50;99.90
29721;DHT22;23665;51.044;3.748;2022-11-15T03:33:56;12.50;99.90
29721;DHT22;23665;51.044;3.748;2022-11-15T03:36:23;12.40;99.90
29721;DHT22;23665;51.044;3.748;2022-11-15T03:38:55;12.40;99.90
29721;DHT22;23665;51.044;3.748;2022-11-15T03:41:28;12.30;99.90
29721;DHT22;23665;51.044;3.748;2022-11-15T03:47:07;12.30;99.90
29721;DHT22;23665;51.044;3.748;2022-11-15T03:49:36;12.20;99.90
29721;DHT22;23665;51.044;3.748;2022-11-15T03:52:04;12.10;99.90
29721;DHT22;23665;51.044;3.748;2022-11-15T03:54:30;12.10;99.90
29721;DHT22;23665;51.044;3.748;2022-11-15T03:56:56;12.10;99.90
29721;DHT22;23665;51.044;3.748;2022-11-15T03:59:22;12.10;99.90
29721;DHT22;23665;51.044;3.748;2022-11-15T04:01:48;12.10;99.90
29721;DHT22;23665;51.044;3.748;2022-11-15T04:04:14;12.10;99.90
29721;DHT22;23665;51.044;3.748;2022-11-15T04:06:40;12.20;99.90
29721;DHT22;23665;51.044;3.748;2022-11-15T04:09:06;12.20;99.90
29721;DHT22;23665;51.044;3.748;2022-11-15T04:11:31;12.20;99.90
29721;DHT22;23665;51.044;3.748;2022-11-15T04:13:57;12.20;99.90
29721;DHT22;23665;51.044;3.748;2022-11-15T04:16:23;12.10;99.90
29721;DHT22;23665;51.044;3.748;2022-11-15T04:18:48;12.00;99.90
29721;DHT22;23665;51.044;3.748;2022-11-15T04:21:34;11.90;99.90
29721;DHT22;23665;51.044;3.748;2022-11-15T04:24:18;11.90;99.90
29721;DHT22;23665;51.044;3.748;2022-11-15T04:26:44;11.90;99.90
29721;DHT22;23665;51.044;3.748;2022-11-15T04:29:10;11.90;99.90
29721;DHT22;23665;51.044;3.748;2022-11-15T04:31:54;11.80;99.90
29721;DHT22;23665;51.044;3.748;2022-11-15T04:34:20;11.70;99.90
29721;DHT22;23665;51.044;3.748;2022-11-15T04:36:45;11.70;99.90
29721;DHT22;23665;51.044;3.748;2022-11-15T04:39:30;11.80;99.90
29721;DHT22;23665;51.044;3.748;2022-11-15T04:41:55;11.70;99.90
29721;DHT22;23665;51.044;3.748;2022-11-15T04:44:21;11.70;99.90
29721;DHT22;23665;51.044;3.748;2022-11-15T04:46:47;11.60;99.90
29721;DHT22;23665;51.044;3.748;2022-11-15T04:49:12;11.70;99.90
29721;DHT22;23665;51.044;3.748;2022-11-15T04:51:38;11.60;99.90
29721;DHT22;23665;51.044;3.748;2022-11-15T04:54:04;11.60;99.90
29721;DHT22;23665;51.044;3.748;2022-11-15T04:56:30;11.50;99.90
29721;DHT22;23665;51.044;3.748;2022-11-15T04:58:56;11.50;99.90
29721;DHT22;23665;51.044;3.748;2022-11-15T05:01:21;11.50;99.90
29721;DHT22;23665;51.044;3.748;2022-11-15T05:03:47;11.50;99.90
29721;DHT22;23665;51.044;3.748;2022-11-15T05:06:31;11.50;99.90
29721;DHT22;23665;51.044;3.748;2022-11-15T05:08:57;11.40;99.90
29721;DHT22;23665;51.044;3.748;2022-11-15T05:11:24;11.40;99.90
29721;DHT22;23665;51.044;3.748;2022-11-15T05:13:50;11.40;99.90
29721;DHT22;23665;51.044;3.748;2022-11-15T05:16:16;11.30;99.90
29721;DHT22;23665;51.044;3.748;2022-11-15T05:18:42;11.30;99.90
29721;DHT22;23665;51.044;3.748;2022-11-15T05:21:10;11.30;99.90
29721;DHT22;23665;51.044;3.748;2022-11-15T05:23:36;11.30;99.90
29721;DHT22;23665;51.044;3.748;2022-11-15T05:26:04;11.20;99.90
29721;DHT22;23665;51.044;3.748;2022-11-15T05:28:30;11.30;99.90
29721;DHT22;23665;51.044;3.748;2022-11-15T05:31:04;11.20;99.90
29721;DHT22;23665;51.044;3.748;2022-11-15T05:33:30;11.10;99.90
29721;DHT22;23665;51.044;3.748;2022-11-15T05:38:47;11.00;99.90
29721;DHT22;23665;51.044;3.748;2022-11-15T05:41:14;11.00;99.90
29721;DHT22;23665;51.044;3.748;2022-11-15T05:43:41;11.00;99.90
29721;DHT22;23665;51.044;3.748;2022-11-15T05:46:07;11.10;99.90
29721;DHT22;23665;51.044;3.748;2022-11-15T05:48:34;11.00;99.90
29721;DHT22;23665;51.044;3.748;2022-11-15T05:51:02;10.90;99.90
29721;DHT22;23665;51.044;3.748;2022-11-15T05:53:29;10.60;99.90
29721;DHT22;23665;51.044;3.748;2022-11-15T05:55:55;10.50;99.90
29721;DHT22;23665;51.044;3.748;2022-11-15T05:58:21;10.50;99.90
29721;DHT22;23665;51.044;3.748;2022-11-15T06:00:47;10.40;99.90
29721;DHT22;23665;51.044;3.748;2022-11-15T06:03:13;10.40;99.90
29721;DHT22;23665;51.044;3.748;2022-11-15T06:05:40;10.60;99.90
29721;DHT22;23665;51.044;3.748;2022-11-15T06:08:06;10.60;99.90
29721;DHT22;23665;51.044;3.748;2022-11-15T06:10:32;10.50;99.90
29721;DHT22;23665;51.044;3.748;2022-11-15T06:13:02;10.50;99.90
29721;DHT22;23665;51.044;3.748;2022-11-15T06:15:28;10.60;99.90
29721;DHT22;23665;51.044;3.748;2022-11-15T06:17:56;10.50;99.90
29721;DHT22;23665;51.044;3.748;2022-11-15T06:20:24;10.40;99.90
29721;DHT22;23665;51.044;3.748;2022-11-15T06:22:50;10.30;99.90
29721;DHT22;23665;51.044;3.748;2022-11-15T06:25:15;10.30;99.90
29721;DHT22;23665;51.044;3.748;2022-11-15T06:27:41;10.30;99.90
29721;DHT22;23665;51.044;3.748;2022-11-15T07:37:21;10.60;99.90
29721;DHT22;23665;51.044;3.748;2022-11-15T07:39:47;10.70;99.90
29721;DHT22;23665;51.044;3.748;2022-11-15T07:42:12;10.50;99.90
29721;DHT22;23665;51.044;3.748;2022-11-15T07:44:57;10.50;99.90
29721;DHT22;23665;51.044;3.748;2022-11-15T07:47:22;10.60;99.90
29721;DHT22;23665;51.044;3.748;2022-11-15T07:49:48;10.80;99.90
29721;DHT22;23665;51.044;3.748;2022-11-15T07:52:14;10.80;99.90
29721;DHT22;23665;51.044;3.748;2022-11-15T07:54:40;10.80;99.90
29721;DHT22;23665;51.044;3.748;2022-11-15T07:57:06;10.80;99.90
29721;DHT22;23665;51.044;3.748;2022-11-15T07:59:33;10.80;99.90
29721;DHT22;23665;51.044;3.748;2022-11-15T08:02:00;10.90;99.90
29721;DHT22;23665;51.044;3.748;2022-11-15T08:04:26;10.90;99.90
29721;DHT22;23665;51.044;3.748;2022-11-15T08:06:51;10.80;99.90
29721;DHT22;23665;51.044;3.748;2022-11-15T08:09:17;10.90;99.90
29721;DHT22;23665;51.044;3.748;2022-11-15T08:11:43;10.90;99.90
29721;DHT22;23665;51.044;3.748;2022-11-15T08:14:08;11.00;99.90
29721;DHT22;23665;51.044;3.748;2022-11-15T08:16:34;11.00;99.90
29721;DHT22;23665;51.044;3.748;2022-11-15T08:19:00;10.90;99.90
29721;DHT22;23665;51.044;3.748;2022-11-15T08:21:26;11.00;99.90
29721;DHT22;23665;51.044;3.748;2022-11-15T08:23:51;11.00;99.90
29721;DHT22;23665;51.044;3.748;2022-11-15T08:26:17;11.10;99.90
29721;DHT22;23665;51.044;3.748;2022-11-15T08:28:43;11.30;99.90
29721;DHT22;23665;51.044;3.748;2022-11-15T08:31:15;11.30;99.90
29721;DHT22;23665;51.044;3.748;2022-11-15T08:33:43;11.20;99.90
29721;DHT22;23665;51.044;3.748;2022-11-15T08:36:13;11.30;99.90
29721;DHT22;23665;51.044;3.748;2022-11-15T08:38:40;11.50;99.90
29721;DHT22;23665;51.044;3.748;2022-11-15T08:41:06;11.50;99.90
29721;DHT22;23665;51.044;3.748;2022-11-15T08:43:32;11.50;99.90
29721;DHT22;23665;51.044;3.748;2022-11-15T08:45:59;11.60;99.90
29721;DHT22;23665;51.044;3.748;2022-11-15T08:48:24;11.70;99.90
29721;DHT22;23665;51.044;3.748;2022-11-15T08:50:54;11.70;99.90
29721;DHT22;23665;51.044;3.748;2022-11-15T08:53:21;11.80;99.90
29721;DHT22;23665;51.044;3.748;2022-11-15T08:55:47;11.80;99.90
29721;DHT22;23665;51.044;3.748;2022-11-15T08:58:12;11.90;99.90
29721;DHT22;23665;51.044;3.748;2022-11-15T09:00:38;12.10;99.90
29721;DHT22;23665;51.044;3.748;2022-11-15T09:03:05;12.10;99.90
29721;DHT22;23665;51.044;3.748;2022-11-15T09:05:35;12.00;99.90
29721;DHT22;23665;51.044;3.748;2022-11-15T09:08:02;12.10;99.90
29721;DHT22;23665;51.044;3.748;2022-11-15T09:10:27;12.20;99.90
29721;DHT22;23665;51.044;3.748;2022-11-15T09:12:53;12.30;99.90
29721;DHT22;23665;51.044;3.748;2022-11-15T09:15:19;12.40;99.90
29721;DHT22;23665;51.044;3.748;2022-11-15T09:17:45;12.60;99.90
29721;DHT22;23665;51.044;3.748;2022-11-15T09:20:11;12.40;99.90
29721;DHT22;23665;51.044;3.748;2022-11-15T09:22:36;12.40;99.90
29721;DHT22;23665;51.044;3.748;2022-11-15T09:25:04;12.40;99.90
29721;DHT22;23665;51.044;3.748;2022-11-15T09:27:30;12.50;99.90
29721;DHT22;23665;51.044;3.748;2022-11-15T09:29:56;12.50;99.90
29721;DHT22;23665;51.044;3.748;2022-11-15T09:32:22;12.40;99.90
29721;DHT22;23665;51.044;3.748;2022-11-15T09:34:49;12.40;99.90
29721;DHT22;23665;51.044;3.748;2022-11-15T09:37:15;12.50;99.90
29721;DHT22;23665;51.044;3.748;2022-11-15T09:39:41;12.60;99.90
29721;DHT22;23665;51.044;3.748;2022-11-15T09:47:41;13.00;99.90
29721;DHT22;23665;51.044;3.748;2022-11-15T09:50:13;13.00;99.90
29721;DHT22;23665;51.044;3.748;2022-11-15T09:52:42;13.00;99.90
29721;DHT22;23665;51.044;3.748;2022-11-15T09:55:13;12.90;99.90
29721;DHT22;23665;51.044;3.748;2022-11-15T09:58:00;13.10;99.90
29721;DHT22;23665;51.044;3.748;2022-11-15T10:00:42;13.30;99.90
29721;DHT22;23665;51.044;3.748;2022-11-15T10:03:18;13.20;99.90
29721;DHT22;23665;51.044;3.748;2022-11-15T10:05:47;13.40;99.90
29721;DHT22;23665;51.044;3.748;2022-11-15T10:08:38;13.40;99.90
29721;DHT22;23665;51.044;3.748;2022-11-15T10:11:19;13.20;99.90
29721;DHT22;23665;51.044;3.748;2022-11-15T10:13:47;13.10;99.90
29721;DHT22;23665;51.044;3.748;2022-11-15T10:24:13;13.10;99.90
29721;DHT22;23665;51.044;3.748;2022-11-15T10:26:50;13.30;99.90
29721;DHT22;23665;51.044;3.748;2022-11-15T10:29:20;13.30;99.90
29721;DHT22;23665;51.044;3.748;2022-11-15T10:31:46;13.40;99.90
29721;DHT22;23665;51.044;3.748;2022-11-15T10:34:19;13.50;99.90
29721;DHT22;23665;51.044;3.748;2022-11-15T10:36:59;13.50;99.90
29721;DHT22;23665;51.044;3.748;2022-11-15T10:39:26;13.60;99.90
29721;DHT22;23665;51.044;3.748;2022-11-15T10:41:52;13.60;99.90
29721;DHT22;23665;51.044;3.748;2022-11-15T10:44:30;13.70;99.90
29721;DHT22;23665;51.044;3.748;2022-11-15T10:49:24;14.10;93.80
29721;DHT22;23665;51.044;3.748;2022-11-15T10:52:04;14.10;91.90
29721;DHT22;23665;51.044;3.748;2022-11-15T10:54:39;14.20;90.00
29721;DHT22;23665;51.044;3.748;2022-11-15T10:57:15;14.30;89.10
29721;DHT22;23665;51.044;3.748;2022-11-15T11:00:03;14.20;91.00
29721;DHT22;23665;51.044;3.748;2022-11-15T11:02:45;14.10;92.70
29721;DHT22;23665;51.044;3.748;2022-11-15T11:05:36;14.40;87.60
29721;DHT22;23665;51.044;3.748;2022-11-15T11:08:23;14.50;78.40
29721;DHT22;23665;51.044;3.748;2022-11-15T11:10:58;14.60;75.80
29721;DHT22;23665;51.044;3.748;2022-11-15T11:19:02;14.40;72.30
29721;DHT22;23665;51.044;3.748;2022-11-15T11:22:09;14.20;85.60
29721;DHT22;23665;51.044;3.748;2022-11-15T11:35:20;14.40;73.10
29721;DHT22;23665;51.044;3.748;2022-11-15T11:44:14;14.30;86.00
29721;DHT22;23665;51.044;3.748;2022-11-15T11:49:39;14.50;77.00
29721;DHT22;23665;51.044;3.748;2022-11-15T11:52:41;14.50;76.60
29721;DHT22;23665;51.044;3.748;2022-11-15T12:01:02;14.50;79.60
29721;DHT22;23665;51.044;3.748;2022-11-15T12:03:43;14.50;78.70
29721;DHT22;23665;51.044;3.748;2022-11-15T12:17:13;14.50;88.60
29721;DHT22;23665;51.044;3.748;2022-11-15T12:19:40;14.50;91.30
29721;DHT22;23665;51.044;3.748;2022-11-15T12:22:32;14.40;92.30
29721;DHT22;23665;51.044;3.748;2022-11-15T12:25:04;14.40;94.40
29721;DHT22;23665;51.044;3.748;2022-11-15T12:28:42;14.50;94.30
29721;DHT22;23665;51.044;3.748;2022-11-15T12:33:36;14.60;93.00
29721;DHT22;23665;51.044;3.748;2022-11-15T12:36:32;14.50;96.60
29721;DHT22;23665;51.044;3.748;2022-11-15T12:41:28;14.70;92.10
29721;DHT22;23665;51.044;3.748;2022-11-15T12:43:54;14.70;92.50
29721;DHT22;23665;51.044;3.748;2022-11-15T12:48:58;14.90;90.80
29721;DHT22;23665;51.044;3.748;2022-11-15T12:59:52;14.70;93.60
29721;DHT22;23665;51.044;3.748;2022-11-15T13:02:25;14.80;93.70
29721;DHT22;23665;51.044;3.748;2022-11-15T13:04:54;14.70;96.00
29721;DHT22;23665;51.044;3.748;2022-11-15T13:12:54;14.60;97.80
29721;DHT22;23665;51.044;3.748;2022-11-15T13:18:17;14.60;99.90
29721;DHT22;23665;51.044;3.748;2022-11-15T13:20:35;14.50;99.90
29721;DHT22;23665;51.044;3.748;2022-11-15T13:33:17;14.50;99.90
29721;DHT22;23665;51.044;3.748;2022-11-15T13:35:46;14.40;99.90
29721;DHT22;23665;51.044;3.748;2022-11-15T13:38:34;14.40;99.90
29721;DHT22;23665;51.044;3.748;2022-11-15T13:43:41;14.40;99.90
29721;DHT22;23665;51.044;3.748;2022-11-15T13:48:44;14.40;99.90
29721;DHT22;23665;51.044;3.748;2022-11-15T13:51:35;14.60;99.90
29721;DHT22;23665;51.044;3.748;2022-11-15T13:54:09;14.50;99.90
29721;DHT22;23665;51.044;3.748;2022-11-15T13:56:44;14.50;99.90
29721;DHT22;23665;51.044;3.748;2022-11-15T14:02:38;14.40;99.90
29721;DHT22;23665;51.044;3.748;2022-11-15T14:05:14;14.50;99.90
29721;DHT22;23665;51.044;3.748;2022-11-15T14:07:53;14.60;99.90
29721;DHT22;23665;51.044;3.748;2022-11-15T14:10:34;14.50;99.90
29721;DHT22;23665;51.044;3.748;2022-11-15T14:13:02;14.40;99.90
29721;DHT22;23665;51.044;3.748;2022-11-15T14:15:37;14.40;99.90
29721;DHT22;23665;51.044;3.748;2022-11-15T14:18:04;14.40;99.90
29721;DHT22;23665;51.044;3.748;2022-11-15T14:20:36;14.30;99.90
29721;DHT22;23665;51.044;3.748;2022-11-15T14:23:26;14.10;99.90
29721;DHT22;23665;51.044;3.748;2022-11-15T14:25:59;14.20;99.90
29721;DHT22;23665;51.044;3.748;2022-11-15T14:30:52;13.90;99.90
29721;DHT22;23665;51.044;3.748;2022-11-15T14:33:34;14.00;99.90
29721;DHT22;23665;51.044;3.748;2022-11-15T14:36:15;14.00;99.90
29721;DHT22;23665;51.044;3.748;2022-11-15T14:38:41;14.00;99.90
29721;DHT22;23665;51.044;3.748;2022-11-15T14:43:44;13.90;99.90
29721;DHT22;23665;51.044;3.748;2022-11-15T14:46:10;13.90;99.90
29721;DHT22;23665;51.044;3.748;2022-11-15T14:48:36;13.80;99.90
29721;DHT22;23665;51.044;3.748;2022-11-15T14:51:08;13.70;99.90
29721;DHT22;23665;51.044;3.748;2022-11-15T14:53:35;13.80;99.90
29721;DHT22;23665;51.044;3.748;2022-11-15T14:56:01;13.60;99.90
29721;DHT22;23665;51.044;3.748;2022-11-15T14:58:26;13.60;99.90
29721;DHT22;23665;51.044;3.748;2022-11-15T15:00:52;13.50;99.90
29721;DHT22;23665;51.044;3.748;2022-11-15T15:03:18;13.50;99.90
29721;DHT22;23665;51.044;3.748;2022-11-15T15:05:44;13.50;99.90
29721;DHT22;23665;51.044;3.748;2022-11-15T15:08:10;13.60;99.90
29721;DHT22;23665;51.044;3.748;2022-11-15T15:10:44;13.60;99.90
29721;DHT22;23665;51.044;3.748;2022-11-15T15:13:31;13.40;99.90
29721;DHT22;23665;51.044;3.748;2022-11-15T15:15:57;13.30;99.90
29721;DHT22;23665;51.044;3.748;2022-11-15T15:18:22;13.30;99.90
29721;DHT22;23665;51.044;3.748;2022-11-15T15:20:55;13.10;99.90
29721;DHT22;23665;51.044;3.748;2022-11-15T15:23:22;13.20;99.90
29721;DHT22;23665;51.044;3.748;2022-11-15T15:25:50;13.20;99.90
29721;DHT22;23665;51.044;3.748;2022-11-15T15:28:18;13.00;99.90
29721;DHT22;23665;51.044;3.748;2022-11-15T15:30:43;13.20;99.90
29721;DHT22;23665;51.044;3.748;2022-11-15T15:33:09;13.20;99.90
29721;DHT22;23665;51.044;3.748;2022-11-15T15:35:35;13.20;99.90
29721;DHT22;23665;51.044;3.748;2022-11-15T15:38:02;13.20;99.90
29721;DHT22;23665;51.044;3.748;2022-11-15T15:40:30;13.20;99.90
29721;DHT22;23665;51.044;3.748;2022-11-15T15:42:56;13.20;99.90
29721;DHT22;23665;51.044;3.748;2022-11-15T15:45:22;13.30;99.90
29721;DHT22;23665;51.044;3.748;2022-11-15T15:47:48;13.40;99.90
29721;DHT22;23665;51.044;3.748;2022-11-15T15:52:43;13.40;99.90
29721;DHT22;23665;51.044;3.748;2022-11-15T15:55:09;13.40;99.90
29721;DHT22;23665;51.044;3.748;2022-11-15T15:57:35;13.40;99.90
29721;DHT22;23665;51.044;3.748;2022-11-15T16:00:03;13.40;99.90
29721;DHT22;23665;51.044;3.748;2022-11-15T16:02:29;13.40;99.90
29721;DHT22;23665;51.044;3.748;2022-11-15T16:04:54;13.30;99.90
29721;DHT22;23665;51.044;3.748;2022-11-15T16:07:23;13.40;99.90
29721;DHT22;23665;51.044;3.748;2022-11-15T16:09:50;13.40;99.90
29721;DHT22;23665;51.044;3.748;2022-11-15T16:12:33;13.30;99.90
29721;DHT22;23665;51.044;3.748;2022-11-15T16:15:00;13.40;99.90
29721;DHT22;23665;51.044;3.748;2022-11-15T16:17:31;13.40;99.90
29721;DHT22;23665;51.044;3.748;2022-11-15T16:19:57;13.40;99.90
29721;DHT22;23665;51.044;3.748;2022-11-15T16:22:23;13.40;99.90
29721;DHT22;23665;51.044;3.748;2022-11-15T16:24:49;13.50;99.90
29721;DHT22;23665;51.044;3.748;2022-11-15T16:27:17;13.50;99.90
29721;DHT22;23665;51.044;3.748;2022-11-15T16:29:43;13.40;99.90
29721;DHT22;23665;51.044;3.748;2022-11-15T16:32:09;13.60;99.90
29721;DHT22;23665;51.044;3.748;2022-11-15T16:34:35;13.60;99.90
29721;DHT22;23665;51.044;3.748;2022-11-15T16:37:01;13.60;99.90
29721;DHT22;23665;51.044;3.748;2022-11-15T16:39:27;13.50;99.90
29721;DHT22;23665;51.044;3.748;2022-11-15T16:41:58;13.50;99.90
29721;DHT22;23665;51.044;3.748;2022-11-15T16:44:25;13.60;99.90
29721;DHT22;23665;51.044;3.748;2022-11-15T16:46:51;13.60;99.90
29721;DHT22;23665;51.044;3.748;2022-11-15T16:49:19;13.50;99.90
29721;DHT22;23665;51.044;3.748;2022-11-15T16:51:45;13.60;99.90
29721;DHT22;23665;51.044;3.748;2022-11-15T16:54:12;13.60;99.90
29721;DHT22;23665;51.044;3.748;2022-11-15T16:56:38;13.70;99.90
29721;DHT22;23665;51.044;3.748;2022-11-15T16:59:05;13.70;99.90
29721;DHT22;23665;51.044;3.748;2022-11-15T17:01:36;13.80;99.90
29721;DHT22;23665;51.044;3.748;2022-11-15T17:04:18;13.60;99.90
29721;DHT22;23665;51.044;3.748;2022-11-15T17:06:45;13.70;99.90
29721;DHT22;23665;51.044;3.748;2022-11-15T17:09:14;13.70;99.90
29721;DHT22;23665;51.044;3.748;2022-11-15T17:11:41;13.70;99.90
29721;DHT22;23665;51.044;3.748;2022-11-15T17:14:07;13.70;99.90
29721;DHT22;23665;51.044;3.748;2022-11-15T17:16:33;13.70;99.90
29721;DHT22;23665;51.044;3.748;2022-11-15T17:19:00;13.70;99.90
29721;DHT22;23665;51.044;3.748;2022-11-15T17:21:26;13.60;99.90
29721;DHT22;23665;51.044;3.748;2022-11-15T17:23:53;13.60;99.90
29721;DHT22;23665;51.044;3.748;2022-11-15T17:26:19;13.50;99.90
29721;DHT22;23665;51.044;3.748;2022-11-15T17:28:45;13.60;99.90
29721;DHT22;23665;51.044;3.748;2022-11-15T17:31:13;13.70;99.90
29721;DHT22;23665;51.044;3.748;2022-11-15T17:33:39;13.60;99.90
29721;DHT22;23665;51.044;3.748;2022-11-15T17:36:09;13.70;99.90
29721;DHT22;23665;51.044;3.748;2022-11-15T17:38:35;13.60;99.90
29721;DHT22;23665;51.044;3.748;2022-11-15T17:41:11;13.60;99.90
29721;DHT22;23665;51.044;3.748;2022-11-15T17:43:37;13.70;99.90
29721;DHT22;23665;51.044;3.748;2022-11-15T17:46:06;13.60;99.90
29721;DHT22;23665;51.044;3.748;2022-11-15T17:48:31;13.60;99.90
29721;DHT22;23665;51.044;3.748;2022-11-15T17:51:03;13.50;99.90
29721;DHT22;23665;51.044;3.748;2022-11-15T17:53:40;13.60;99.90
29721;DHT22;23665;51.044;3.748;2022-11-15T17:56:11;13.70;99.90
29721;DHT22;23665;51.044;3.748;2022-11-15T17:58:37;13.60;99.90
29721;DHT22;23665;51.044;3.748;2022-11-15T18:03:43;13.60;99.90
29721;DHT22;23665;51.044;3.748;2022-11-15T18:06:09;13.70;99.90
29721;DHT22;23665;51.044;3.748;2022-11-15T18:08:36;13.80;99.90
29721;DHT22;23665;51.044;3.748;2022-11-15T18:13:38;13.60;99.90
29721;DHT22;23665;51.044;3.748;2022-11-15T18:16:07;13.60;99.90
29721;DHT22;23665;51.044;3.748;2022-11-15T18:18:34;13.70;99.90
29721;DHT22;23665;51.044;3.748;2022-11-15T18:21:04;13.70;99.90
29721;DHT22;23665;51.044;3.748;2022-11-15T18:23:32;13.70;99.90
29721;DHT22;23665;51.044;3.748;2022-11-15T18:25:59;13.60;99.90
29721;DHT22;23665;51.044;3.748;2022-11-15T18:28:32;13.50;99.90
29721;DHT22;23665;51.044;3.748;2022-11-15T18:30:59;13.60;99.90
29721;DHT22;23665;51.044;3.748;2022-11-15T18:33:32;13.70;99.90
29721;DHT22;23665;51.044;3.748;2022-11-15T18:36:03;13.70;99.90
29721;DHT22;23665;51.044;3.748;2022-11-15T18:38:29;13.70;99.90
29721;DHT22;23665;51.044;3.748;2022-11-15T18:41:06;13.70;99.90
29721;DHT22;23665;51.044;3.748;2022-11-15T18:43:33;13.70;99.90
29721;DHT22;23665;51.044;3.748;2022-11-15T18:46:08;13.70;99.90
29721;DHT22;23665;51.044;3.748;2022-11-15T18:48:35;13.70;99.90
29721;DHT22;23665;51.044;3.748;2022-11-15T18:51:06;13.70;99.90
29721;DHT22;23665;51.044;3.748;2022-11-15T18:53:33;13.70;99.90
29721;DHT22;23665;51.044;3.748;2022-11-15T18:56:13;13.80;99.90
29721;DHT22;23665;51.044;3.748;2022-11-15T18:58:45;13.80;99.90
29721;DHT22;23665;51.044;3.748;2022-11-15T19:01:32;13.70;99.90
29721;DHT22;23665;51.044;3.748;2022-11-15T19:06:30;13.50;99.90
29721;DHT22;23665;51.044;3.748;2022-11-15T19:08:58;13.80;99.90
29721;DHT22;23665;51.044;3.748;2022-11-15T19:11:29;14.40;99.90
29721;DHT22;23665;51.044;3.748;2022-11-15T19:13:57;15.20;99.90
29721;DHT22;23665;51.044;3.748;2022-11-15T19:16:25;15.70;99.90
29721;DHT22;23665;51.044;3.748;2022-11-15T19:18:56;16.70;99.90
29721;DHT22;23665;51.044;3.748;2022-11-15T19:21:23;17.20;99.90